Time;durP1;ratioP1;P1;durP2;ratioP2;P2;SDS_P1;SDS_P2;PMS_P1;PMS_P2;Temp;Humidity;BMP_temperature;BMP_pressure;BME280_temperature;BME280_humidity;BME280_pressure;Samples;Min_cycle;Max_cycle;Signal;HPM_P1;HPM_P2
2023/02/08 00:00:30;0.00;0.00;0.62;0.00;0.00;0.62;2.00;1.73;;;22.70;23.40;;;;;;2263601;61;20388;-66
2023/02/08 00:03:16;0.00;0.00;0.62;0.00;0.00;0.62;2.53;2.00;;;22.60;22.80;;;;;;2264519;61;20407;-66
2023/02/08 00:06:00;0.00;0.00;0.62;0.00;0.00;0.62;2.30;1.93;;;22.60;22.80;;;;;;2263947;61;20873;-65
2023/02/08 00:08:47;0.00;0.00;0.62;0.00;0.00;0.62;4.53;2.00;;;22.60;22.80;;;;;;2264374;61;20837;-65
2023/02/08 00:11:32;0.00;0.00;0.62;0.00;0.00;0.62;2.63;2.17;;;22.60;22.80;;;;;;2264485;61;20380;-65
2023/02/08 00:14:17;0.00;0.00;0.62;0.00;0.00;0.62;2.47;2.10;;;22.60;22.80;;;;;;2263634;61;20924;-67
2023/02/08 00:17:01;0.00;0.00;0.62;0.00;0.00;0.62;3.83;2.30;;;22.60;22.90;;;;;;2296114;53;20901;-66
2023/02/08 00:19:46;0.00;0.00;0.62;0.00;0.00;0.62;3.00;2.40;;;22.60;22.90;;;;;;2260056;61;20358;-66
2023/02/08 00:22:31;0.00;0.00;0.62;0.00;0.00;0.62;3.00;2.23;;;22.60;23.00;;;;;;2260232;61;20450;-69
2023/02/08 00:25:17;0.00;0.00;0.62;0.00;0.00;0.62;3.00;2.50;;;22.60;23.40;;;;;;2260657;61;20769;-64
2023/02/08 00:28:03;0.00;0.00;0.62;0.00;0.00;0.62;4.33;2.20;;;22.60;22.90;;;;;;2260018;61;20365;-64
2023/02/08 00:30:48;0.00;0.00;0.62;0.00;0.00;0.62;2.53;1.90;;;22.60;22.90;;;;;;2259873;61;20389;-66
2023/02/08 00:33:33;0.00;0.00;0.62;0.00;0.00;0.62;2.30;2.10;;;22.60;22.90;;;;;;2260017;61;20547;-65
2023/02/08 00:36:18;0.00;0.00;0.62;0.00;0.00;0.62;3.00;2.30;;;22.60;23.40;;;;;;2259042;61;21035;-65
2023/02/08 00:39:03;0.00;0.00;0.62;0.00;0.00;0.62;2.77;1.80;;;22.60;22.90;;;;;;2260705;61;20834;-67
2023/02/08 00:41:49;0.00;0.00;0.62;0.00;0.00;0.62;2.30;1.80;;;22.50;22.80;;;;;;2259883;61;20408;-64
2023/02/08 00:44:34;0.00;0.00;0.62;0.00;0.00;0.62;2.87;2.00;;;22.50;22.80;;;;;;2256475;61;20822;-65
2023/02/08 00:47:18;0.00;0.00;0.62;0.00;0.00;0.62;2.40;2.00;;;22.60;22.90;;;;;;2260291;61;20932;-65
2023/02/08 00:50:04;0.00;0.00;0.62;0.00;0.00;0.62;2.53;2.10;;;22.50;22.80;;;;;;2259474;61;20368;-66
2023/02/08 00:52:49;0.00;0.00;0.62;0.00;0.00;0.62;2.40;1.90;;;22.50;22.80;;;;;;2259970;61;20384;-66
2023/02/08 00:55:34;0.00;0.00;0.62;0.00;0.00;0.62;2.30;1.90;;;22.50;22.80;;;;;;2260267;61;20364;-65
2023/02/08 00:58:20;0.00;0.00;0.62;0.00;0.00;0.62;2.23;2.00;;;22.50;22.80;;;;;;2256370;61;20479;-65
2023/02/08 01:01:06;0.00;0.00;0.62;0.00;0.00;0.62;2.80;2.10;;;22.50;22.80;;;;;;2260430;61;20417;-66
2023/02/08 01:03:51;0.00;0.00;0.62;0.00;0.00;0.62;2.87;2.17;;;22.50;22.80;;;;;;2256944;61;20544;-66
2023/02/08 01:06:36;0.00;0.00;0.62;0.00;0.00;0.62;2.43;2.00;;;22.50;22.80;;;;;;2256519;61;20424;-66
2023/02/08 01:09:23;0.00;0.00;0.62;0.00;0.00;0.62;2.60;2.20;;;22.50;22.80;;;;;;2257455;61;20400;-66
2023/02/08 01:12:08;0.00;0.00;0.62;0.00;0.00;0.62;2.70;2.23;;;22.50;22.80;;;;;;2259682;61;21163;-66
2023/02/08 01:14:54;0.00;0.00;0.62;0.00;0.00;0.62;2.80;2.00;;;22.50;22.80;;;;;;2259891;61;20881;-68
2023/02/08 01:17:38;0.00;0.00;0.62;0.00;0.00;0.62;3.20;2.70;;;22.50;22.90;;;;;;2261580;61;20373;-63
2023/02/08 01:20:24;0.00;0.00;0.62;0.00;0.00;0.62;2.90;2.03;;;22.40;22.90;;;;;;2254366;61;20453;-64
2023/02/08 01:23:08;0.00;0.00;0.62;0.00;0.00;0.62;3.40;2.47;;;22.50;23.00;;;;;;2264403;61;20360;-64
2023/02/08 01:25:53;0.00;0.00;0.62;0.00;0.00;0.62;2.63;2.20;;;22.40;22.90;;;;;;2264036;61;20742;-65
2023/02/08 01:28:39;0.00;0.00;0.62;0.00;0.00;0.62;3.20;2.50;;;22.40;23.40;;;;;;2260342;61;20352;-60
2023/02/08 01:31:28;0.00;0.00;0.62;0.00;0.00;0.62;4.20;3.03;;;22.40;22.80;;;;;;2260881;61;20380;-64
2023/02/08 01:34:12;0.00;0.00;0.62;0.00;0.00;0.62;3.23;2.53;;;22.40;22.80;;;;;;2263092;61;20518;-62
2023/02/08 01:36:58;0.00;0.00;0.62;0.00;0.00;0.62;3.97;3.23;;;22.40;22.80;;;;;;2263386;61;20399;-61
2023/02/08 01:39:42;0.00;0.00;0.62;0.00;0.00;0.62;4.83;3.87;;;22.40;22.60;;;;;;2264364;61;20406;-62
2023/02/08 01:42:27;0.00;0.00;0.62;0.00;0.00;0.62;4.70;4.20;;;22.40;22.50;;;;;;2263185;61;20393;-63
2023/02/08 01:45:26;0.00;0.00;0.62;0.00;0.00;0.62;4.10;3.70;;;22.40;22.40;;;;;;2263957;61;20615;-64
2023/02/08 01:48:18;0.00;0.00;0.62;0.00;0.00;0.62;5.20;4.63;;;22.30;22.30;;;;;;2260473;61;20415;-63
2023/02/08 01:51:08;0.00;0.00;0.62;0.00;0.00;0.62;6.60;5.63;;;22.30;22.30;;;;;;2263769;61;20392;-62
2023/02/08 01:53:56;0.00;0.00;0.62;0.00;0.00;0.62;5.90;5.30;;;22.30;22.20;;;;;;2263746;61;20430;-62
2023/02/08 01:56:44;0.00;0.00;0.62;0.00;0.00;0.62;7.90;7.10;;;22.20;22.00;;;;;;2262919;61;20518;-62
2023/02/08 01:59:37;0.00;0.00;0.62;0.00;0.00;0.62;7.23;6.00;;;22.20;21.90;;;;;;2260696;61;20355;-64
2023/02/08 02:02:23;0.00;0.00;0.62;0.00;0.00;0.62;6.90;6.30;;;22.10;21.80;;;;;;2263931;61;20358;-62
2023/02/08 02:05:10;0.00;0.00;0.62;0.00;0.00;0.62;7.77;6.83;;;22.10;21.60;;;;;;2263116;61;20410;-63
2023/02/08 02:07:57;0.00;0.00;0.62;0.00;0.00;0.62;8.20;7.10;;;22.00;21.50;;;;;;2263535;61;20908;-63
2023/02/08 02:10:43;0.00;0.00;0.62;0.00;0.00;0.62;9.07;8.17;;;22.00;21.40;;;;;;2258453;61;20461;-64
2023/02/08 02:13:29;0.00;0.00;0.62;0.00;0.00;0.62;7.50;6.70;;;21.90;21.20;;;;;;2259813;61;20545;-61
2023/02/08 02:16:14;0.00;0.00;0.62;0.00;0.00;0.62;8.57;7.67;;;21.90;21.20;;;;;;2259556;61;20396;-61
2023/02/08 02:18:59;0.00;0.00;0.62;0.00;0.00;0.62;7.93;7.13;;;21.80;21.10;;;;;;2256257;61;20411;-63
2023/02/08 02:22:02;0.00;0.00;0.62;0.00;0.00;0.62;9.17;7.73;;;21.80;21.10;;;;;;2259715;61;20423;-64
2023/02/08 02:25:54;0.00;0.00;0.62;0.00;0.00;0.62;9.17;7.43;;;21.70;21.00;;;;;;2259117;61;20872;-62
2023/02/08 02:29:07;0.00;0.00;0.62;0.00;0.00;0.62;8.10;7.23;;;21.70;21.00;;;;;;2239718;61;20945;-61
2023/02/08 02:32:16;0.00;0.00;0.62;0.00;0.00;0.62;9.50;8.20;;;21.60;20.90;;;;;;2242781;61;20424;-65
2023/02/08 02:35:07;0.00;0.00;0.62;0.00;0.00;0.62;8.50;7.60;;;21.60;20.90;;;;;;2241931;61;20416;-62
2023/02/08 02:38:06;0.00;0.00;0.62;0.00;0.00;0.62;9.53;8.57;;;21.50;20.80;;;;;;2259673;61;20800;-62
2023/02/08 02:41:04;0.00;0.00;0.62;0.00;0.00;0.62;9.03;8.10;;;21.50;20.60;;;;;;2255880;61;20372;-60
2023/02/08 02:43:57;0.00;0.00;0.62;0.00;0.00;0.62;9.47;8.47;;;21.40;20.40;;;;;;2259319;61;20437;-64
2023/02/08 02:46:49;0.00;0.00;0.62;0.00;0.00;0.62;10.40;9.30;;;21.40;20.40;;;;;;2256302;61;20354;-62
2023/02/08 02:49:45;0.00;0.00;0.62;0.00;0.00;0.62;10.10;9.10;;;21.30;20.30;;;;;;2259287;61;20928;-61
2023/02/08 02:52:39;0.00;0.00;0.62;0.00;0.00;0.62;10.10;8.97;;;21.20;20.10;;;;;;2256924;61;20377;-63
2023/02/08 02:55:26;0.00;0.00;0.62;0.00;0.00;0.62;9.23;8.20;;;21.20;20.10;;;;;;2259528;61;20365;-66
2023/02/08 02:58:15;0.00;0.00;0.62;0.00;0.00;0.62;9.20;8.30;;;21.10;20.00;;;;;;2256167;61;20828;-62
2023/02/08 03:01:00;0.00;0.00;0.62;0.00;0.00;0.62;9.20;7.90;;;21.10;20.10;;;;;;2256857;61;20381;-67
2023/02/08 03:03:45;0.00;0.00;0.62;0.00;0.00;0.62;9.47;8.03;;;21.00;20.20;;;;;;2259560;61;20416;-64
2023/02/08 03:06:53;0.00;0.00;0.62;0.00;0.00;0.62;10.40;9.20;;;21.00;20.30;;;;;;2259670;61;20389;-64
2023/02/08 03:10:00;0.00;0.00;0.62;0.00;0.00;0.62;9.20;8.27;;;20.90;20.20;;;;;;2259753;61;20403;-62
2023/02/08 03:12:57;0.00;0.00;0.62;0.00;0.00;0.62;8.70;7.80;;;20.90;20.30;;;;;;2259740;61;20817;-63
2023/02/08 03:15:58;0.00;0.00;0.62;0.00;0.00;0.62;9.27;8.03;;;20.90;20.40;;;;;;2260246;61;20373;-63
2023/02/08 03:19:00;0.00;0.00;0.62;0.00;0.00;0.62;8.83;7.80;;;20.80;20.30;;;;;;2259197;61;20364;-63
2023/02/08 03:21:54;0.00;0.00;0.62;0.00;0.00;0.62;9.87;8.70;;;20.80;20.90;;;;;;2259760;61;20408;-61
2023/02/08 03:24:47;0.00;0.00;0.62;0.00;0.00;0.62;8.90;8.10;;;20.80;20.30;;;;;;2259460;61;20361;-63
2023/02/08 03:27:38;0.00;0.00;0.62;0.00;0.00;0.62;9.43;8.50;;;20.80;20.30;;;;;;2262730;61;20371;-62
2023/02/08 03:30:32;0.00;0.00;0.62;0.00;0.00;0.62;9.10;7.57;;;20.70;20.90;;;;;;2260655;61;20384;-64
2023/02/08 03:33:22;0.00;0.00;0.62;0.00;0.00;0.62;7.70;6.90;;;20.70;20.30;;;;;;2263257;61;20407;-61
2023/02/08 03:36:16;0.00;0.00;0.62;0.00;0.00;0.62;8.60;7.80;;;20.70;20.40;;;;;;2263746;61;20367;-62
2023/02/08 03:39:09;0.00;0.00;0.62;0.00;0.00;0.62;7.90;7.10;;;20.70;20.30;;;;;;2263657;61;21006;-63
2023/02/08 03:41:58;0.00;0.00;0.62;0.00;0.00;0.62;9.87;7.47;;;20.60;20.30;;;;;;2263523;61;20983;-60
2023/02/08 03:44:49;0.00;0.00;0.62;0.00;0.00;0.62;8.57;7.20;;;20.60;20.40;;;;;;2263981;61;20363;-69
2023/02/08 03:47:39;0.00;0.00;0.62;0.00;0.00;0.62;9.03;8.13;;;20.60;20.40;;;;;;2262821;61;20478;-64
2023/02/08 03:50:25;0.00;0.00;0.62;0.00;0.00;0.62;8.27;7.47;;;20.60;20.40;;;;;;2263516;61;20376;-62
2023/02/08 03:53:13;0.00;0.00;0.62;0.00;0.00;0.62;8.23;7.43;;;20.60;20.40;;;;;;2263391;61;20387;-62
2023/02/08 03:56:06;0.00;0.00;0.62;0.00;0.00;0.62;9.47;8.10;;;20.60;20.40;;;;;;2263363;61;20364;-61
2023/02/08 03:58:57;0.00;0.00;0.62;0.00;0.00;0.62;7.77;6.70;;;20.50;20.40;;;;;;2264528;61;20830;-63
2023/02/08 04:01:46;0.00;0.00;0.62;0.00;0.00;0.62;8.77;7.87;;;20.50;20.40;;;;;;2263842;61;20380;-63
2023/02/08 04:04:35;0.00;0.00;0.62;0.00;0.00;0.62;8.20;7.40;;;20.50;20.40;;;;;;2263902;61;20483;-63
2023/02/08 04:07:20;0.00;0.00;0.62;0.00;0.00;0.62;8.47;7.60;;;20.40;20.30;;;;;;2264061;61;20407;-63
2023/02/08 04:10:06;0.00;0.00;0.62;0.00;0.00;0.62;7.33;6.63;;;20.40;20.30;;;;;;2263655;61;20480;-63
2023/02/08 04:12:52;0.00;0.00;0.62;0.00;0.00;0.62;7.63;6.83;;;20.40;20.30;;;;;;2264251;61;20395;-64
2023/02/08 04:15:37;0.00;0.00;0.62;0.00;0.00;0.62;8.63;7.73;;;20.40;20.30;;;;;;2264504;61;20367;-64
2023/02/08 04:18:22;0.00;0.00;0.62;0.00;0.00;0.62;8.37;6.80;;;20.40;20.40;;;;;;2263662;61;20415;-69
2023/02/08 04:21:07;0.00;0.00;0.62;0.00;0.00;0.62;8.17;7.37;;;20.40;20.40;;;;;;2264545;61;20916;-63
2023/02/08 04:23:52;0.00;0.00;0.62;0.00;0.00;0.62;8.00;7.20;;;20.30;20.30;;;;;;2264067;61;20772;-64
2023/02/08 04:26:36;0.00;0.00;0.62;0.00;0.00;0.62;7.10;6.33;;;20.30;20.30;;;;;;2263412;61;20432;-63
2023/02/08 04:29:23;0.00;0.00;0.62;0.00;0.00;0.62;7.50;6.70;;;20.30;20.30;;;;;;2264013;61;20448;-62
2023/02/08 04:32:12;0.00;0.00;0.62;0.00;0.00;0.62;10.13;7.93;;;20.20;20.30;;;;;;2263962;61;20787;-64
2023/02/08 04:34:56;0.00;0.00;0.62;0.00;0.00;0.62;7.80;6.73;;;20.30;20.30;;;;;;2260769;61;20364;-64
2023/02/08 04:37:41;0.00;0.00;0.62;0.00;0.00;0.62;8.80;7.47;;;20.20;20.20;;;;;;2259959;61;20364;-61
2023/02/08 04:40:26;0.00;0.00;0.62;0.00;0.00;0.62;8.00;7.10;;;20.20;20.30;;;;;;2259551;61;20423;-61
2023/02/08 04:43:10;0.00;0.00;0.62;0.00;0.00;0.62;7.87;7.07;;;20.20;20.30;;;;;;2264735;61;20398;-63
2023/02/08 04:45:56;0.00;0.00;0.62;0.00;0.00;0.62;7.53;6.70;;;20.10;20.20;;;;;;2264188;61;20348;-62
2023/02/08 04:48:41;0.00;0.00;0.62;0.00;0.00;0.62;7.80;7.00;;;20.10;20.20;;;;;;2264356;61;20464;-62
2023/02/08 04:51:26;0.00;0.00;0.62;0.00;0.00;0.62;7.73;7.03;;;20.10;20.20;;;;;;2264391;61;20780;-60
2023/02/08 04:54:11;0.00;0.00;0.62;0.00;0.00;0.62;7.27;6.50;;;20.10;20.30;;;;;;2263980;61;20392;-58
2023/02/08 04:56:55;0.00;0.00;0.62;0.00;0.00;0.62;8.23;7.43;;;20.10;20.30;;;;;;2264194;61;20902;-61
2023/02/08 04:59:40;0.00;0.00;0.62;0.00;0.00;0.62;8.20;7.13;;;20.10;20.30;;;;;;2264491;61;20379;-62
2023/02/08 05:02:26;0.00;0.00;0.62;0.00;0.00;0.62;8.00;7.10;;;20.10;20.30;;;;;;2263997;61;20372;-62
2023/02/08 05:05:11;0.00;0.00;0.62;0.00;0.00;0.62;8.63;7.27;;;20.10;20.30;;;;;;2264485;61;20395;-61
2023/02/08 05:07:56;0.00;0.00;0.62;0.00;0.00;0.62;8.77;7.10;;;20.00;20.20;;;;;;2264068;61;20798;-61
2023/02/08 05:10:44;0.00;0.00;0.62;0.00;0.00;0.62;8.70;7.50;;;20.00;20.20;;;;;;2264450;61;20392;-58
2023/02/08 05:13:29;0.00;0.00;0.62;0.00;0.00;0.62;8.27;7.00;;;20.00;20.20;;;;;;2263820;61;20423;-60
2023/02/08 05:16:14;0.00;0.00;0.62;0.00;0.00;0.62;10.03;7.17;;;20.00;20.20;;;;;;2264038;61;20766;-61
2023/02/08 05:19:00;0.00;0.00;0.62;0.00;0.00;0.62;10.00;6.80;;;19.90;20.20;;;;;;2264424;61;20340;-63
2023/02/08 05:21:44;0.00;0.00;0.62;0.00;0.00;0.62;10.27;7.67;;;19.90;20.10;;;;;;2264265;61;20973;-61
2023/02/08 05:24:29;0.00;0.00;0.62;0.00;0.00;0.62;8.20;7.40;;;19.90;20.10;;;;;;2263774;61;20356;-61
2023/02/08 05:27:14;0.00;0.00;0.62;0.00;0.00;0.62;7.97;7.17;;;19.90;20.10;;;;;;2264434;61;20452;-59
2023/02/08 05:29:59;0.00;0.00;0.62;0.00;0.00;0.62;8.13;7.33;;;19.80;20.00;;;;;;2263665;61;20360;-58
2023/02/08 05:32:44;0.00;0.00;0.62;0.00;0.00;0.62;7.47;6.67;;;19.80;20.00;;;;;;2264139;61;20352;-61
2023/02/08 05:35:30;0.00;0.00;0.62;0.00;0.00;0.62;8.10;6.60;;;19.80;20.00;;;;;;2264636;61;20340;-61
2023/02/08 05:38:14;0.00;0.00;0.62;0.00;0.00;0.62;8.60;6.63;;;19.80;20.00;;;;;;2263815;61;20352;-61
2023/02/08 05:40:59;0.00;0.00;0.62;0.00;0.00;0.62;9.30;7.23;;;19.70;20.00;;;;;;2264071;61;20380;-59
2023/02/08 05:43:44;0.00;0.00;0.62;0.00;0.00;0.62;7.73;6.93;;;19.70;20.00;;;;;;2264501;61;20857;-61
2023/02/08 05:46:29;0.00;0.00;0.62;0.00;0.00;0.62;7.37;6.40;;;19.70;20.00;;;;;;2264017;61;20360;-60
2023/02/08 05:49:14;0.00;0.00;0.62;0.00;0.00;0.62;7.80;6.87;;;19.70;20.00;;;;;;2264602;61;20363;-60
2023/02/08 05:52:01;0.00;0.00;0.62;0.00;0.00;0.62;7.03;6.20;;;19.70;20.00;;;;;;2263780;61;20479;-63
2023/02/08 05:54:45;0.00;0.00;0.62;0.00;0.00;0.62;7.53;6.73;;;19.70;20.10;;;;;;2263361;61;20392;-63
2023/02/08 05:57:30;0.00;0.00;0.62;0.00;0.00;0.62;7.10;6.40;;;19.60;20.00;;;;;;2264376;61;20349;-61
2023/02/08 06:00:16;0.00;0.00;0.62;0.00;0.00;0.62;6.40;5.80;;;19.60;20.10;;;;;;2263373;61;21001;-62
2023/02/08 06:03:00;0.00;0.00;0.62;0.00;0.00;0.62;7.90;6.50;;;19.60;20.20;;;;;;2263975;61;20364;-55
2023/02/08 06:05:45;0.00;0.00;0.62;0.00;0.00;0.62;6.23;5.40;;;19.60;20.20;;;;;;2264475;61;20899;-59
2023/02/08 06:08:31;0.00;0.00;0.62;0.00;0.00;0.62;6.10;5.50;;;19.60;20.30;;;;;;2263673;61;20369;-59
2023/02/08 06:11:18;0.00;0.00;0.62;0.00;0.00;0.62;6.40;5.70;;;19.60;20.30;;;;;;2264526;61;20908;-59
2023/02/08 06:14:03;0.00;0.00;0.62;0.00;0.00;0.62;5.87;5.27;;;19.60;20.40;;;;;;2263907;61;20446;-61
2023/02/08 06:16:47;0.00;0.00;0.62;0.00;0.00;0.62;5.70;5.10;;;19.60;20.40;;;;;;2263397;61;20368;-59
2023/02/08 06:19:32;0.00;0.00;0.62;0.00;0.00;0.62;6.00;5.20;;;19.60;20.40;;;;;;2263896;61;20415;-61
2023/02/08 06:22:16;0.00;0.00;0.62;0.00;0.00;0.62;5.20;4.70;;;19.60;20.50;;;;;;2263456;61;20364;-60
2023/02/08 06:25:03;0.00;0.00;0.62;0.00;0.00;0.62;5.37;4.87;;;19.60;20.50;;;;;;2263744;61;20348;-60
2023/02/08 06:27:47;0.00;0.00;0.62;0.00;0.00;0.62;4.97;4.50;;;19.60;20.50;;;;;;2260605;61;20405;-60
2023/02/08 06:30:33;0.00;0.00;0.62;0.00;0.00;0.62;5.20;4.53;;;19.60;20.50;;;;;;2263232;61;20380;-59
2023/02/08 06:33:18;0.00;0.00;0.62;0.00;0.00;0.62;5.13;4.57;;;19.60;20.60;;;;;;2264014;61;20433;-61
2023/02/08 06:36:03;0.00;0.00;0.62;0.00;0.00;0.62;4.53;4.13;;;19.60;20.60;;;;;;2490762;53;20342;-60
2023/02/08 06:38:48;0.00;0.00;0.62;0.00;0.00;0.62;5.03;4.50;;;19.70;20.70;;;;;;2255767;61;20404;-60
2023/02/08 06:41:34;0.00;0.00;0.62;0.00;0.00;0.62;4.20;3.80;;;19.70;20.70;;;;;;2256377;61;20377;-60
2023/02/08 06:44:19;0.00;0.00;0.62;0.00;0.00;0.62;4.10;3.70;;;19.70;20.70;;;;;;2255967;61;20382;-61
2023/02/08 06:47:04;0.00;0.00;0.62;0.00;0.00;0.62;4.77;4.37;;;19.70;20.70;;;;;;2491206;53;20369;-61
2023/02/08 06:49:49;0.00;0.00;0.62;0.00;0.00;0.62;5.73;4.30;;;19.70;20.70;;;;;;2256230;61;20358;-62
2023/02/08 06:52:34;0.00;0.00;0.62;0.00;0.00;0.62;4.70;4.30;;;19.70;20.80;;;;;;2255550;61;20833;-59
2023/02/08 06:55:18;0.00;0.00;0.62;0.00;0.00;0.62;3.77;3.40;;;19.70;20.80;;;;;;2255669;61;20798;-60
2023/02/08 06:58:04;0.00;0.00;0.62;0.00;0.00;0.62;4.40;3.77;;;19.70;20.80;;;;;;2255951;61;20835;-60
2023/02/08 07:00:49;0.00;0.00;0.62;0.00;0.00;0.62;4.60;3.63;;;19.70;20.80;;;;;;2255920;61;20432;-60
2023/02/08 07:03:34;0.00;0.00;0.62;0.00;0.00;0.62;4.23;3.70;;;19.70;20.90;;;;;;2256102;61;20940;-60
2023/02/08 07:06:19;0.00;0.00;0.62;0.00;0.00;0.62;3.77;3.27;;;19.70;20.90;;;;;;2255458;61;20878;-60
2023/02/08 07:09:04;0.00;0.00;0.62;0.00;0.00;0.62;4.23;3.40;;;19.70;20.90;;;;;;2256010;61;20417;-59
2023/02/08 07:11:48;0.00;0.00;0.62;0.00;0.00;0.62;3.93;3.53;;;19.70;20.90;;;;;;2256567;61;20382;-62
2023/02/08 07:14:38;0.00;0.00;0.62;0.00;0.00;0.62;4.20;3.57;;;19.70;20.90;;;;;;2255168;61;20389;-62
2023/02/08 07:17:23;0.00;0.00;0.62;0.00;0.00;0.62;4.00;3.57;;;19.70;21.00;;;;;;2255922;61;20416;-63
2023/02/08 07:20:10;0.00;0.00;0.62;0.00;0.00;0.62;5.00;4.50;;;19.80;21.00;;;;;;2256473;61;20477;-59
2023/02/08 07:22:55;0.00;0.00;0.62;0.00;0.00;0.62;7.00;5.20;;;19.80;21.00;;;;;;2255754;61;20369;-60
2023/02/08 07:25:40;0.00;0.00;0.62;0.00;0.00;0.62;5.47;4.93;;;19.80;20.80;;;;;;2255880;61;20362;-64
2023/02/08 07:28:25;0.00;0.00;0.62;0.00;0.00;0.62;5.10;4.40;;;19.70;20.80;;;;;;2255572;61;20921;-60
2023/02/08 07:31:14;0.00;0.00;0.62;0.00;0.00;0.62;7.10;6.33;;;19.70;20.70;;;;;;2255647;61;20546;-63
2023/02/08 07:33:59;0.00;0.00;0.62;0.00;0.00;0.62;6.73;6.03;;;19.70;21.20;;;;;;2256486;61;20390;-63
2023/02/08 07:36:44;0.00;0.00;0.62;0.00;0.00;0.62;7.70;6.90;;;19.70;20.60;;;;;;2255867;61;20446;-62
2023/02/08 07:39:30;0.00;0.00;0.62;0.00;0.00;0.62;7.83;6.93;;;19.70;20.60;;;;;;2256729;61;20365;-66
2023/02/08 07:42:14;0.00;0.00;0.62;0.00;0.00;0.62;8.27;7.47;;;19.70;20.50;;;;;;2255541;61;20894;-67
2023/02/08 07:45:11;0.00;0.00;0.62;0.00;0.00;0.62;10.77;7.37;;;19.70;20.50;;;;;;2252820;61;20460;-62
2023/02/08 07:47:57;0.00;0.00;0.62;0.00;0.00;0.62;13.47;7.77;;;19.60;20.40;;;;;;2256383;61;20362;-64
2023/02/08 07:50:41;0.00;0.00;0.62;0.00;0.00;0.62;9.70;8.70;;;19.60;20.30;;;;;;2253090;61;20386;-66
2023/02/08 07:53:26;0.00;0.00;0.62;0.00;0.00;0.62;8.60;7.70;;;19.60;20.20;;;;;;2256059;61;20436;-61
2023/02/08 07:56:11;0.00;0.00;0.62;0.00;0.00;0.62;9.83;7.37;;;19.60;20.20;;;;;;2257826;61;20487;-61
2023/02/08 07:58:55;0.00;0.00;0.62;0.00;0.00;0.62;9.60;7.80;;;19.50;20.20;;;;;;2260063;61;20683;-64
2023/02/08 08:01:40;0.00;0.00;0.62;0.00;0.00;0.62;10.60;8.63;;;19.50;20.20;;;;;;2260690;61;20846;-65
2023/02/08 08:04:26;0.00;0.00;0.62;0.00;0.00;0.62;10.57;9.20;;;19.50;20.00;;;;;;2257493;61;20361;-65
2023/02/08 08:07:11;0.00;0.00;0.62;0.00;0.00;0.62;10.40;9.23;;;19.40;19.90;;;;;;2259770;61;20465;-61
2023/02/08 08:09:55;0.00;0.00;0.62;0.00;0.00;0.62;11.10;9.50;;;19.40;19.70;;;;;;2260696;61;20767;-65
2023/02/08 08:12:40;0.00;0.00;0.62;0.00;0.00;0.62;9.13;8.20;;;19.30;19.70;;;;;;2260304;61;20361;-65
2023/02/08 08:15:24;0.00;0.00;0.62;0.00;0.00;0.62;7.20;6.50;;;19.30;19.90;;;;;;2260092;61;20361;-64
2023/02/08 08:18:09;0.00;0.00;0.62;0.00;0.00;0.62;8.10;7.30;;;19.30;20.00;;;;;;2260719;61;20436;-65
2023/02/08 08:20:55;0.00;0.00;0.62;0.00;0.00;0.62;8.20;6.83;;;19.30;20.10;;;;;;2259825;61;20465;-62
2023/02/08 08:23:40;0.00;0.00;0.62;0.00;0.00;0.62;7.93;6.93;;;19.30;20.20;;;;;;2260695;61;20873;-63
2023/02/08 08:26:24;0.00;0.00;0.62;0.00;0.00;0.62;9.40;7.10;;;19.40;20.30;;;;;;2260301;61;20411;-64
2023/02/08 08:29:09;0.00;0.00;0.62;0.00;0.00;0.62;6.43;5.80;;;19.40;20.90;;;;;;2259563;61;20361;-62
2023/02/08 08:31:54;0.00;0.00;0.62;0.00;0.00;0.62;6.67;5.97;;;19.40;20.40;;;;;;2260823;61;20439;-63
2023/02/08 08:34:38;0.00;0.00;0.62;0.00;0.00;0.62;8.10;6.83;;;19.40;20.40;;;;;;2259984;61;20392;-63
2023/02/08 08:37:24;0.00;0.00;0.62;0.00;0.00;0.62;7.20;6.50;;;19.40;20.50;;;;;;2259803;61;20389;-62
2023/02/08 08:40:10;0.00;0.00;0.62;0.00;0.00;0.62;7.10;6.17;;;19.50;20.50;;;;;;2260641;61;20834;-59
2023/02/08 08:42:56;0.00;0.00;0.62;0.00;0.00;0.62;6.87;6.17;;;19.50;20.60;;;;;;2259812;61;20764;-61
2023/02/08 08:45:41;0.00;0.00;0.62;0.00;0.00;0.62;6.93;6.23;;;19.50;20.70;;;;;;2260574;61;20770;-62
2023/02/08 08:48:25;0.00;0.00;0.62;0.00;0.00;0.62;8.50;6.40;;;19.50;20.70;;;;;;2260315;61;20410;-63
2023/02/08 08:51:10;0.00;0.00;0.62;0.00;0.00;0.62;7.50;6.40;;;19.60;20.80;;;;;;2259788;61;20384;-59
2023/02/08 08:53:57;0.00;0.00;0.62;0.00;0.00;0.62;8.77;6.33;;;19.60;20.80;;;;;;2260613;61;20380;-62
2023/02/08 08:56:43;0.00;0.00;0.62;0.00;0.00;0.62;6.63;5.40;;;19.60;20.90;;;;;;2259785;61;20447;-61
2023/02/08 08:59:28;0.00;0.00;0.62;0.00;0.00;0.62;7.10;6.23;;;19.60;20.90;;;;;;2260093;61;20353;-61
2023/02/08 09:02:14;0.00;0.00;0.62;0.00;0.00;0.62;6.13;5.50;;;19.70;21.00;;;;;;2260416;61;20480;-59
2023/02/08 09:04:59;0.00;0.00;0.62;0.00;0.00;0.62;6.53;5.50;;;19.70;21.00;;;;;;2259891;61;20763;-62
2023/02/08 09:07:43;0.00;0.00;0.62;0.00;0.00;0.62;7.10;5.43;;;19.70;21.00;;;;;;2260196;61;20357;-61
2023/02/08 09:10:30;0.00;0.00;0.62;0.00;0.00;0.62;8.43;5.63;;;19.70;21.00;;;;;;2260312;61;20912;-59
2023/02/08 09:13:18;0.00;0.00;0.62;0.00;0.00;0.62;6.80;5.80;;;19.80;21.00;;;;;;2259577;61;20397;-59
2023/02/08 09:16:09;0.00;0.00;0.62;0.00;0.00;0.62;8.03;6.33;;;19.80;21.00;;;;;;2260576;61;20365;-63
2023/02/08 09:18:54;0.00;0.00;0.62;0.00;0.00;0.62;6.40;5.17;;;19.80;21.10;;;;;;2260175;61;20365;-63
2023/02/08 09:21:39;0.00;0.00;0.62;0.00;0.00;0.62;6.30;5.10;;;19.80;21.60;;;;;;2259884;61;20465;-60
2023/02/08 09:24:24;0.00;0.00;0.62;0.00;0.00;0.62;6.10;5.10;;;19.90;21.10;;;;;;2260392;61;20442;-63
2023/02/08 09:27:10;0.00;0.00;0.62;0.00;0.00;0.62;5.73;4.97;;;19.90;21.10;;;;;;2259636;61;20450;-60
2023/02/08 09:29:54;0.00;0.00;0.62;0.00;0.00;0.62;6.23;5.20;;;19.90;21.20;;;;;;2260207;61;20522;-65
2023/02/08 09:32:39;0.00;0.00;0.62;0.00;0.00;0.62;5.43;4.67;;;19.90;21.10;;;;;;2260440;61;20361;-59
2023/02/08 09:35:24;0.00;0.00;0.62;0.00;0.00;0.62;5.80;4.23;;;20.00;21.20;;;;;;2258818;61;20365;-60
2023/02/08 09:38:09;0.00;0.00;0.62;0.00;0.00;0.62;5.67;5.03;;;20.00;21.20;;;;;;2256662;61;20453;-60
2023/02/08 09:41:09;0.00;0.00;0.62;0.00;0.00;0.62;5.00;4.30;;;20.00;21.20;;;;;;2260360;61;20388;-59
2023/02/08 09:44:13;0.00;0.00;0.62;0.00;0.00;0.62;4.47;4.00;;;20.10;21.30;;;;;;2259250;61;20407;-63
2023/02/08 09:47:02;0.00;0.00;0.62;0.00;0.00;0.62;5.70;4.23;;;20.10;21.30;;;;;;2260236;61;20897;-60
2023/02/08 09:50:03;0.00;0.00;0.62;0.00;0.00;0.62;5.20;4.70;;;20.10;21.30;;;;;;2259943;61;20893;-63
2023/02/08 09:52:56;0.00;0.00;0.62;0.00;0.00;0.62;5.20;4.40;;;20.10;21.30;;;;;;2260301;61;20443;-57
2023/02/08 09:55:45;0.00;0.00;0.62;0.00;0.00;0.62;5.30;4.57;;;20.20;21.40;;;;;;2260266;61;20380;-61
2023/02/08 09:58:36;0.00;0.00;0.62;0.00;0.00;0.62;5.17;4.67;;;20.20;21.40;;;;;;2259876;61;20384;-60
2023/02/08 10:01:27;0.00;0.00;0.62;0.00;0.00;0.62;4.77;4.00;;;20.20;21.40;;;;;;2260380;61;20599;-63
2023/02/08 10:04:21;0.00;0.00;0.62;0.00;0.00;0.62;5.23;4.50;;;20.30;21.40;;;;;;2259769;61;20818;-63
2023/02/08 10:07:08;0.00;0.00;0.62;0.00;0.00;0.62;4.50;4.07;;;20.30;21.40;;;;;;2259534;61;20892;-64
2023/02/08 10:09:55;0.00;0.00;0.62;0.00;0.00;0.62;5.00;4.50;;;20.30;21.40;;;;;;2260500;61;20377;-63
2023/02/08 10:12:48;0.00;0.00;0.62;0.00;0.00;0.62;5.40;4.90;;;20.40;21.50;;;;;;2259475;61;20956;-62
2023/02/08 10:15:40;0.00;0.00;0.62;0.00;0.00;0.62;5.07;4.30;;;20.40;21.50;;;;;;2260398;61;20455;-62
2023/02/08 10:18:43;0.00;0.00;0.62;0.00;0.00;0.62;4.60;4.20;;;20.40;21.50;;;;;;2259730;61;20924;-63
2023/02/08 10:21:42;0.00;0.00;0.62;0.00;0.00;0.62;3.87;3.47;;;20.40;21.50;;;;;;2256829;61;20912;-64
2023/02/08 10:24:52;0.00;0.00;0.62;0.00;0.00;0.62;5.30;3.93;;;20.50;21.50;;;;;;2260409;61;20361;-62
2023/02/08 10:27:48;0.00;0.00;0.62;0.00;0.00;0.62;4.07;3.50;;;20.50;21.50;;;;;;2258850;61;20380;-65
2023/02/08 10:30:41;0.00;0.00;0.62;0.00;0.00;0.62;4.63;4.00;;;20.60;21.60;;;;;;2260234;61;20436;-66
2023/02/08 10:33:36;0.00;0.00;0.62;0.00;0.00;0.62;4.80;4.27;;;20.60;21.60;;;;;;2260026;61;20381;-67
2023/02/08 10:36:27;0.00;0.00;0.62;0.00;0.00;0.62;4.20;3.50;;;20.60;21.60;;;;;;2259685;61;20365;-66
2023/02/08 10:39:21;0.00;0.00;0.62;0.00;0.00;0.62;4.03;3.63;;;20.70;21.70;;;;;;2260266;61;20364;-67
2023/02/08 10:42:14;0.00;0.00;0.62;0.00;0.00;0.62;4.40;3.73;;;20.70;21.70;;;;;;2258886;61;20388;-66
2023/02/08 10:45:11;0.00;0.00;0.62;0.00;0.00;0.62;3.30;3.00;;;20.70;21.70;;;;;;2264201;61;20441;-65
2023/02/08 10:48:00;0.00;0.00;0.62;0.00;0.00;0.62;3.97;3.60;;;20.80;21.70;;;;;;2263590;61;20356;-66
2023/02/08 10:50:47;0.00;0.00;0.62;0.00;0.00;0.62;4.00;3.40;;;20.80;21.70;;;;;;2263564;61;20411;-66
2023/02/08 10:53:32;0.00;0.00;0.62;0.00;0.00;0.62;4.43;3.97;;;20.90;21.70;;;;;;2263949;61;20419;-68
2023/02/08 10:56:41;0.00;0.00;0.62;0.00;0.00;0.62;3.90;3.23;;;20.90;21.70;;;;;;2263454;61;20418;-65
2023/02/08 10:59:31;0.00;0.00;0.62;0.00;0.00;0.62;4.23;3.63;;;21.00;21.80;;;;;;2264119;61;20364;-67
2023/02/08 11:02:23;0.00;0.00;0.62;0.00;0.00;0.62;4.20;3.33;;;21.00;21.80;;;;;;2264167;61;20357;-66